sensor_id;sensor_type;location;lat;lon;timestamp;temperature;humidity
23813;DHT22;12087;45.190;5.688;2022-10-16T00:01:06;16.20;99.90
23813;DHT22;12087;45.190;5.688;2022-10-16T00:06:29;16.10;99.90
23813;DHT22;12087;45.190;5.688;2022-10-16T00:11:52;16.10;99.90
23813;DHT22;12087;45.190;5.688;2022-10-16T00:17:15;16.10;99.90
23813;DHT22;12087;45.190;5.688;2022-10-16T00:22:38;16.00;99.90
23813;DHT22;12087;45.190;5.688;2022-10-16T00:28:06;16.00;99.90
23813;DHT22;12087;45.190;5.688;2022-10-16T01:01:06;16.10;99.90
23813;DHT22;12087;45.190;5.688;2022-10-16T01:06:43;16.00;99.90
23813;DHT22;12087;45.190;5.688;2022-10-16T01:12:17;16.10;99.90
23813;DHT22;12087;45.190;5.688;2022-10-16T01:17:57;16.10;99.90
23813;DHT22;12087;45.190;5.688;2022-10-16T01:34:31;16.10;99.90
23813;DHT22;12087;45.190;5.688;2022-10-16T01:40:07;16.00;99.90
23813;DHT22;12087;45.190;5.688;2022-10-16T01:45:40;15.90;99.90
23813;DHT22;12087;45.190;5.688;2022-10-16T01:51:09;15.80;99.90
23813;DHT22;12087;45.190;5.688;2022-10-16T01:56:33;15.70;99.90
23813;DHT22;12087;45.190;5.688;2022-10-16T02:01:59;15.70;99.90
23813;DHT22;12087;45.190;5.688;2022-10-16T02:07:23;15.60;99.90
23813;DHT22;12087;45.190;5.688;2022-10-16T02:12:48;15.60;99.90
23813;DHT22;12087;45.190;5.688;2022-10-16T02:18:11;15.50;99.90
23813;DHT22;12087;45.190;5.688;2022-10-16T02:45:21;15.10;99.90
23813;DHT22;12087;45.190;5.688;2022-10-16T02:50:44;15.10;99.90
23813;DHT22;12087;45.190;5.688;2022-10-16T02:56:08;15.00;99.90
23813;DHT22;12087;45.190;5.688;2022-10-16T03:01:30;15.00;99.90
23813;DHT22;12087;45.190;5.688;2022-10-16T03:06:52;15.00;99.90
23813;DHT22;12087;45.190;5.688;2022-10-16T03:12:16;14.90;99.90
23813;DHT22;12087;45.190;5.688;2022-10-16T03:17:38;14.90;99.90
23813;DHT22;12087;45.190;5.688;2022-10-16T03:23:00;14.90;99.90
23813;DHT22;12087;45.190;5.688;2022-10-16T03:28:24;14.90;99.90
23813;DHT22;12087;45.190;5.688;2022-10-16T03:33:47;15.10;99.90
23813;DHT22;12087;45.190;5.688;2022-10-16T03:39:09;15.00;99.90
23813;DHT22;12087;45.190;5.688;2022-10-16T03:44:33;15.00;99.90
23813;DHT22;12087;45.190;5.688;2022-10-16T03:49:55;15.00;99.90
23813;DHT22;12087;45.190;5.688;2022-10-16T03:55:17;15.10;99.90
23813;DHT22;12087;45.190;5.688;2022-10-16T04:00:42;15.10;99.90
23813;DHT22;12087;45.190;5.688;2022-10-16T04:06:05;15.10;99.90
23813;DHT22;12087;45.190;5.688;2022-10-16T04:11:27;15.10;99.90
23813;DHT22;12087;45.190;5.688;2022-10-16T04:16:50;15.10;99.90
23813;DHT22;12087;45.190;5.688;2022-10-16T04:22:13;15.10;99.90
23813;DHT22;12087;45.190;5.688;2022-10-16T04:27:35;15.10;99.90
23813;DHT22;12087;45.190;5.688;2022-10-16T04:32:59;15.00;99.90
23813;DHT22;12087;45.190;5.688;2022-10-16T04:38:21;15.00;99.90
23813;DHT22;12087;45.190;5.688;2022-10-16T04:43:43;15.00;99.90
23813;DHT22;12087;45.190;5.688;2022-10-16T04:49:07;14.90;99.90
23813;DHT22;12087;45.190;5.688;2022-10-16T04:54:29;14.90;99.90
23813;DHT22;12087;45.190;5.688;2022-10-16T04:59:52;14.80;99.90
23813;DHT22;12087;45.190;5.688;2022-10-16T05:05:15;14.70;99.90
23813;DHT22;12087;45.190;5.688;2022-10-16T05:10:42;14.60;99.90
23813;DHT22;12087;45.190;5.688;2022-10-16T05:16:05;14.50;99.90
23813;DHT22;12087;45.190;5.688;2022-10-16T05:21:29;14.60;99.90
23813;DHT22;12087;45.190;5.688;2022-10-16T05:26:51;14.60;99.90
23813;DHT22;12087;45.190;5.688;2022-10-16T05:32:14;14.50;99.90
23813;DHT22;12087;45.190;5.688;2022-10-16T05:37:37;14.60;99.90
23813;DHT22;12087;45.190;5.688;2022-10-16T05:43:00;14.50;99.90
23813;DHT22;12087;45.190;5.688;2022-10-16T05:48:22;14.40;99.90
23813;DHT22;12087;45.190;5.688;2022-10-16T05:53:46;14.30;99.90
23813;DHT22;12087;45.190;5.688;2022-10-16T05:59:09;14.20;99.90
23813;DHT22;12087;45.190;5.688;2022-10-16T06:04:31;14.30;99.90
23813;DHT22;12087;45.190;5.688;2022-10-16T06:09:54;14.20;99.90
23813;DHT22;12087;45.190;5.688;2022-10-16T06:15:17;14.20;99.90
23813;DHT22;12087;45.190;5.688;2022-10-16T06:20:39;14.10;99.90
23813;DHT22;12087;45.190;5.688;2022-10-16T06:26:06;14.20;99.90
23813;DHT22;12087;45.190;5.688;2022-10-16T06:31:29;14.10;99.90
23813;DHT22;12087;45.190;5.688;2022-10-16T06:36:54;14.10;99.90
23813;DHT22;12087;45.190;5.688;2022-10-16T06:42:17;14.10;99.90
23813;DHT22;12087;45.190;5.688;2022-10-16T06:47:39;14.30;99.90
23813;DHT22;12087;45.190;5.688;2022-10-16T06:53:02;14.30;99.90
23813;DHT22;12087;45.190;5.688;2022-10-16T06:58:27;14.40;99.90
23813;DHT22;12087;45.190;5.688;2022-10-16T07:03:54;14.40;99.90
23813;DHT22;12087;45.190;5.688;2022-10-16T07:09:16;14.60;99.90
23813;DHT22;12087;45.190;5.688;2022-10-16T07:14:50;14.60;99.90
23813;DHT22;12087;45.190;5.688;2022-10-16T07:20:14;14.60;99.90
23813;DHT22;12087;45.190;5.688;2022-10-16T07:25:37;14.70;99.90
23813;DHT22;12087;45.190;5.688;2022-10-16T07:31:05;14.80;99.90
23813;DHT22;12087;45.190;5.688;2022-10-16T07:36:28;14.90;99.90
23813;DHT22;12087;45.190;5.688;2022-10-16T07:41:51;15.00;99.90
23813;DHT22;12087;45.190;5.688;2022-10-16T07:47:15;15.20;99.90
23813;DHT22;12087;45.190;5.688;2022-10-16T07:52:37;15.30;99.90
23813;DHT22;12087;45.190;5.688;2022-10-16T07:58:00;15.40;99.90
23813;DHT22;12087;45.190;5.688;2022-10-16T08:03:24;15.50;99.90
23813;DHT22;12087;45.190;5.688;2022-10-16T08:08:53;15.60;99.90
23813;DHT22;12087;45.190;5.688;2022-10-16T08:14:16;15.80;99.90
23813;DHT22;12087;45.190;5.688;2022-10-16T08:19:40;15.90;99.90
23813;DHT22;12087;45.190;5.688;2022-10-16T08:25:02;16.00;99.90
23813;DHT22;12087;45.190;5.688;2022-10-16T08:30:28;16.10;99.90
23813;DHT22;12087;45.190;5.688;2022-10-16T08:35:54;16.30;99.90
23813;DHT22;12087;45.190;5.688;2022-10-16T08:41:52;16.40;99.90
23813;DHT22;12087;45.190;5.688;2022-10-16T08:47:21;16.50;99.90
23813;DHT22;12087;45.190;5.688;2022-10-16T08:52:46;16.70;99.90
23813;DHT22;12087;45.190;5.688;2022-10-16T08:58:12;16.80;99.90
23813;DHT22;12087;45.190;5.688;2022-10-16T09:03:50;17.00;99.90
23813;DHT22;12087;45.190;5.688;2022-10-16T09:09:35;17.10;99.90
23813;DHT22;12087;45.190;5.688;2022-10-16T09:15:05;17.20;99.90
23813;DHT22;12087;45.190;5.688;2022-10-16T09:20:39;17.30;99.90
23813;DHT22;12087;45.190;5.688;2022-10-16T09:26:09;17.40;99.90
23813;DHT22;12087;45.190;5.688;2022-10-16T09:31:36;17.50;99.90
23813;DHT22;12087;45.190;5.688;2022-10-16T09:37:00;17.60;99.90
23813;DHT22;12087;45.190;5.688;2022-10-16T09:42:31;17.80;99.90
23813;DHT22;12087;45.190;5.688;2022-10-16T09:47:53;17.80;99.90
23813;DHT22;12087;45.190;5.688;2022-10-16T09:53:16;18.00;99.90
23813;DHT22;12087;45.190;5.688;2022-10-16T09:58:49;18.10;99.90
23813;DHT22;12087;45.190;5.688;2022-10-16T10:04:12;18.20;99.90
23813;DHT22;12087;45.190;5.688;2022-10-16T10:09:38;18.30;99.90
23813;DHT22;12087;45.190;5.688;2022-10-16T10:15:07;18.40;99.90
23813;DHT22;12087;45.190;5.688;2022-10-16T10:20:33;18.50;99.90
23813;DHT22;12087;45.190;5.688;2022-10-16T10:26:01;18.70;99.90
23813;DHT22;12087;45.190;5.688;2022-10-16T10:31:30;18.80;99.90
23813;DHT22;12087;45.190;5.688;2022-10-16T10:37:00;19.00;99.90
23813;DHT22;12087;45.190;5.688;2022-10-16T10:42:28;19.10;99.90
23813;DHT22;12087;45.190;5.688;2022-10-16T10:48:03;19.30;99.90
23813;DHT22;12087;45.190;5.688;2022-10-16T10:53:36;19.40;99.90
23813;DHT22;12087;45.190;5.688;2022-10-16T10:59:27;19.50;99.90
23813;DHT22;12087;45.190;5.688;2022-10-16T11:05:18;19.70;99.90
23813;DHT22;12087;45.190;5.688;2022-10-16T11:10:51;19.90;99.90
23813;DHT22;12087;45.190;5.688;2022-10-16T11:16:18;20.10;99.90
23813;DHT22;12087;45.190;5.688;2022-10-16T11:21:50;20.20;99.90
23813;DHT22;12087;45.190;5.688;2022-10-16T11:27:17;20.40;99.90
23813;DHT22;12087;45.190;5.688;2022-10-16T11:32:52;20.60;99.90
23813;DHT22;12087;45.190;5.688;2022-10-16T11:38:27;20.70;99.90
23813;DHT22;12087;45.190;5.688;2022-10-16T11:44:12;20.90;99.90
23813;DHT22;12087;45.190;5.688;2022-10-16T11:49:38;21.10;99.90
23813;DHT22;12087;45.190;5.688;2022-10-16T11:55:09;21.20;99.90
23813;DHT22;12087;45.190;5.688;2022-10-16T12:00:40;21.40;99.90
23813;DHT22;12087;45.190;5.688;2022-10-16T12:06:14;21.60;99.90
23813;DHT22;12087;45.190;5.688;2022-10-16T12:11:40;21.80;99.90
23813;DHT22;12087;45.190;5.688;2022-10-16T12:17:04;22.20;99.90
23813;DHT22;12087;45.190;5.688;2022-10-16T12:22:29;22.80;99.90
23813;DHT22;12087;45.190;5.688;2022-10-16T12:27:58;23.20;99.90
23813;DHT22;12087;45.190;5.688;2022-10-16T12:33:22;23.60;99.90
23813;DHT22;12087;45.190;5.688;2022-10-16T12:38:47;23.80;99.90
23813;DHT22;12087;45.190;5.688;2022-10-16T12:44:23;24.10;99.90
23813;DHT22;12087;45.190;5.688;2022-10-16T12:49:49;24.50;99.90
23813;DHT22;12087;45.190;5.688;2022-10-16T12:55:16;24.60;99.90
23813;DHT22;12087;45.190;5.688;2022-10-16T13:00:44;25.00;98.50
23813;DHT22;12087;45.190;5.688;2022-10-16T13:06:30;25.20;99.20
23813;DHT22;12087;45.190;5.688;2022-10-16T13:17:56;25.60;95.90
23813;DHT22;12087;45.190;5.688;2022-10-16T13:23:25;25.90;92.80
23813;DHT22;12087;45.190;5.688;2022-10-16T13:28:48;25.90;94.10
23813;DHT22;12087;45.190;5.688;2022-10-16T13:34:16;25.90;93.90
23813;DHT22;12087;45.190;5.688;2022-10-16T13:39:39;26.10;90.00
23813;DHT22;12087;45.190;5.688;2022-10-16T13:45:01;26.40;88.60
23813;DHT22;12087;45.190;5.688;2022-10-16T13:50:25;26.50;90.00
23813;DHT22;12087;45.190;5.688;2022-10-16T13:55:47;26.50;87.10
23813;DHT22;12087;45.190;5.688;2022-10-16T14:01:17;26.50;87.30
23813;DHT22;12087;45.190;5.688;2022-10-16T14:06:43;26.60;83.20
23813;DHT22;12087;45.190;5.688;2022-10-16T14:12:10;26.60;82.80
23813;DHT22;12087;45.190;5.688;2022-10-16T14:17:34;26.60;81.90
23813;DHT22;12087;45.190;5.688;2022-10-16T14:23:03;26.50;84.70
23813;DHT22;12087;45.190;5.688;2022-10-16T14:28:26;26.50;80.40
23813;DHT22;12087;45.190;5.688;2022-10-16T14:33:48;26.50;80.10
23813;DHT22;12087;45.190;5.688;2022-10-16T14:39:19;26.50;78.90
23813;DHT22;12087;45.190;5.688;2022-10-16T14:44:43;26.40;81.70
23813;DHT22;12087;45.190;5.688;2022-10-16T14:50:08;26.40;83.90
23813;DHT22;12087;45.190;5.688;2022-10-16T14:55:32;26.40;79.90
23813;DHT22;12087;45.190;5.688;2022-10-16T15:00:55;26.40;80.60
23813;DHT22;12087;45.190;5.688;2022-10-16T15:06:18;26.30;84.50
23813;DHT22;12087;45.190;5.688;2022-10-16T15:11:42;26.10;78.40
23813;DHT22;12087;45.190;5.688;2022-10-16T15:17:04;26.00;79.90
23813;DHT22;12087;45.190;5.688;2022-10-16T15:22:27;25.90;80.00
23813;DHT22;12087;45.190;5.688;2022-10-16T15:27:50;25.80;80.10
23813;DHT22;12087;45.190;5.688;2022-10-16T15:33:14;25.70;81.40
23813;DHT22;12087;45.190;5.688;2022-10-16T15:38:37;25.60;81.70
23813;DHT22;12087;45.190;5.688;2022-10-16T15:44:00;25.30;81.30
23813;DHT22;12087;45.190;5.688;2022-10-16T15:49:23;25.10;83.90
23813;DHT22;12087;45.190;5.688;2022-10-16T15:54:45;24.90;83.40
23813;DHT22;12087;45.190;5.688;2022-10-16T16:00:12;24.70;84.50
23813;DHT22;12087;45.190;5.688;2022-10-16T16:05:38;24.50;82.60
23813;DHT22;12087;45.190;5.688;2022-10-16T16:11:02;24.30;87.30
23813;DHT22;12087;45.190;5.688;2022-10-16T16:16:25;24.10;86.50
23813;DHT22;12087;45.190;5.688;2022-10-16T16:21:48;24.10;87.10
23813;DHT22;12087;45.190;5.688;2022-10-16T16:27:10;23.90;87.00
23813;DHT22;12087;45.190;5.688;2022-10-16T16:32:35;23.70;90.10
23813;DHT22;12087;45.190;5.688;2022-10-16T16:37:57;23.50;91.10
23813;DHT22;12087;45.190;5.688;2022-10-16T16:43:23;23.20;92.30
23813;DHT22;12087;45.190;5.688;2022-10-16T16:48:47;23.20;91.40
23813;DHT22;12087;45.190;5.688;2022-10-16T16:54:11;23.10;92.80
23813;DHT22;12087;45.190;5.688;2022-10-16T16:59:34;22.90;92.60
23813;DHT22;12087;45.190;5.688;2022-10-16T17:04:58;22.70;95.50
23813;DHT22;12087;45.190;5.688;2022-10-16T17:10:20;22.50;95.00
23813;DHT22;12087;45.190;5.688;2022-10-16T17:15:46;22.40;96.00
23813;DHT22;12087;45.190;5.688;2022-10-16T17:21:10;22.20;99.30
23813;DHT22;12087;45.190;5.688;2022-10-16T17:26:33;22.00;97.00
23813;DHT22;12087;45.190;5.688;2022-10-16T17:31:58;21.90;97.20
23813;DHT22;12087;45.190;5.688;2022-10-16T17:37:21;21.80;97.20
23813;DHT22;12087;45.190;5.688;2022-10-16T17:42:43;21.60;98.50
23813;DHT22;12087;45.190;5.688;2022-10-16T17:48:06;21.50;98.90
23813;DHT22;12087;45.190;5.688;2022-10-16T17:53:42;21.30;99.90
23813;DHT22;12087;45.190;5.688;2022-10-16T17:59:04;21.20;99.90
23813;DHT22;12087;45.190;5.688;2022-10-16T18:04:27;21.10;99.90
23813;DHT22;12087;45.190;5.688;2022-10-16T18:09:51;21.00;99.90
23813;DHT22;12087;45.190;5.688;2022-10-16T18:15:13;20.80;99.90
23813;DHT22;12087;45.190;5.688;2022-10-16T18:20:36;20.80;99.90
23813;DHT22;12087;45.190;5.688;2022-10-16T18:26:06;20.70;99.90
23813;DHT22;12087;45.190;5.688;2022-10-16T18:31:37;20.50;99.90
23813;DHT22;12087;45.190;5.688;2022-10-16T18:37:01;20.50;99.90
23813;DHT22;12087;45.190;5.688;2022-10-16T18:42:24;20.50;99.90
23813;DHT22;12087;45.190;5.688;2022-10-16T18:47:47;20.40;99.90
23813;DHT22;12087;45.190;5.688;2022-10-16T18:53:09;20.30;99.90
23813;DHT22;12087;45.190;5.688;2022-10-16T18:58:34;20.30;99.90
23813;DHT22;12087;45.190;5.688;2022-10-16T19:04:14;20.20;99.90
23813;DHT22;12087;45.190;5.688;2022-10-16T19:10:22;20.10;99.90
23813;DHT22;12087;45.190;5.688;2022-10-16T19:16:13;20.10;99.90
23813;DHT22;12087;45.190;5.688;2022-10-16T19:21:42;20.00;99.90
23813;DHT22;12087;45.190;5.688;2022-10-16T19:27:24;19.90;99.90
23813;DHT22;12087;45.190;5.688;2022-10-16T19:32:51;19.90;99.90
23813;DHT22;12087;45.190;5.688;2022-10-16T19:38:13;19.90;99.90
23813;DHT22;12087;45.190;5.688;2022-10-16T19:43:37;19.90;99.90
23813;DHT22;12087;45.190;5.688;2022-10-16T19:49:04;19.80;99.90
23813;DHT22;12087;45.190;5.688;2022-10-16T19:54:27;19.90;99.90
23813;DHT22;12087;45.190;5.688;2022-10-16T19:59:51;19.80;99.90
23813;DHT22;12087;45.190;5.688;2022-10-16T20:05:15;19.70;99.90
23813;DHT22;12087;45.190;5.688;2022-10-16T20:10:38;19.70;99.90
23813;DHT22;12087;45.190;5.688;2022-10-16T20:16:02;19.60;99.90
23813;DHT22;12087;45.190;5.688;2022-10-16T20:21:31;19.60;99.90
23813;DHT22;12087;45.190;5.688;2022-10-16T20:26:54;19.50;99.90
23813;DHT22;12087;45.190;5.688;2022-10-16T20:32:18;19.50;99.90
23813;DHT22;12087;45.190;5.688;2022-10-16T20:37:43;19.40;99.90
23813;DHT22;12087;45.190;5.688;2022-10-16T20:43:11;19.40;99.90
23813;DHT22;12087;45.190;5.688;2022-10-16T20:48:40;19.30;99.90
23813;DHT22;12087;45.190;5.688;2022-10-16T21:05:08;19.00;99.90
23813;DHT22;12087;45.190;5.688;2022-10-16T21:15:57;18.80;99.90
23813;DHT22;12087;45.190;5.688;2022-10-16T21:21:24;18.70;99.90
23813;DHT22;12087;45.190;5.688;2022-10-16T21:26:47;18.60;99.90
23813;DHT22;12087;45.190;5.688;2022-10-16T21:32:13;18.50;99.90
23813;DHT22;12087;45.190;5.688;2022-10-16T21:37:36;18.50;99.90
23813;DHT22;12087;45.190;5.688;2022-10-16T21:42:58;18.40;99.90
23813;DHT22;12087;45.190;5.688;2022-10-16T21:48:22;18.30;99.90
23813;DHT22;12087;45.190;5.688;2022-10-16T21:53:45;18.20;99.90
23813;DHT22;12087;45.190;5.688;2022-10-16T21:59:08;18.00;99.90
23813;DHT22;12087;45.190;5.688;2022-10-16T22:09:55;17.90;99.90
23813;DHT22;12087;45.190;5.688;2022-10-16T22:15:18;17.80;99.90
23813;DHT22;12087;45.190;5.688;2022-10-16T22:20:45;17.70;99.90
23813;DHT22;12087;45.190;5.688;2022-10-16T22:26:10;17.70;99.90
23813;DHT22;12087;45.190;5.688;2022-10-16T22:31:33;17.60;99.90
23813;DHT22;12087;45.190;5.688;2022-10-16T22:36:57;17.50;99.90
23813;DHT22;12087;45.190;5.688;2022-10-16T22:42:19;17.50;99.90
23813;DHT22;12087;45.190;5.688;2022-10-16T22:47:42;17.40;99.90
23813;DHT22;12087;45.190;5.688;2022-10-16T22:53:06;17.40;99.90
23813;DHT22;12087;45.190;5.688;2022-10-16T22:58:28;17.30;99.90
23813;DHT22;12087;45.190;5.688;2022-10-16T23:03:51;17.30;99.90
23813;DHT22;12087;45.190;5.688;2022-10-16T23:09:14;17.20;99.90
23813;DHT22;12087;45.190;5.688;2022-10-16T23:14:53;17.10;99.90
23813;DHT22;12087;45.190;5.688;2022-10-16T23:20:16;17.10;99.90
23813;DHT22;12087;45.190;5.688;2022-10-16T23:25:44;17.00;99.90
23813;DHT22;12087;45.190;5.688;2022-10-16T23:31:09;17.00;99.90
23813;DHT22;12087;45.190;5.688;2022-10-16T23:36:31;16.90;99.90
23813;DHT22;12087;45.190;5.688;2022-10-16T23:41:54;16.90;99.90
23813;DHT22;12087;45.190;5.688;2022-10-16T23:47:17;16.90;99.90
23813;DHT22;12087;45.190;5.688;2022-10-16T23:52:40;16.90;99.90
23813;DHT22;12087;45.190;5.688;2022-10-16T23:58:02;17.00;99.90
